sensor_id;sensor_type;location;lat;lon;timestamp;temperature;humidity
13482;DHT22;6813;60.352;15.746;2023-05-18T00:02:02;7.30;81.50
13482;DHT22;6813;60.352;15.746;2023-05-18T00:04:29;7.20;80.40
13482;DHT22;6813;60.352;15.746;2023-05-18T00:06:55;6.90;80.10
13482;DHT22;6813;60.352;15.746;2023-05-18T00:09:32;6.70;81.00
13482;DHT22;6813;60.352;15.746;2023-05-18T00:11:58;6.60;81.60
13482;DHT22;6813;60.352;15.746;2023-05-18T00:14:25;6.50;82.20
13482;DHT22;6813;60.352;15.746;2023-05-18T00:16:51;6.50;81.50
13482;DHT22;6813;60.352;15.746;2023-05-18T00:19:23;6.50;82.80
13482;DHT22;6813;60.352;15.746;2023-05-18T00:21:50;6.70;82.50
13482;DHT22;6813;60.352;15.746;2023-05-18T00:24:16;6.90;81.40
13482;DHT22;6813;60.352;15.746;2023-05-18T00:26:44;6.70;81.90
13482;DHT22;6813;60.352;15.746;2023-05-18T00:29:10;6.80;81.00
13482;DHT22;6813;60.352;15.746;2023-05-18T00:31:36;6.70;80.20
13482;DHT22;6813;60.352;15.746;2023-05-18T00:34:09;6.60;80.60
13482;DHT22;6813;60.352;15.746;2023-05-18T00:36:36;6.60;80.20
13482;DHT22;6813;60.352;15.746;2023-05-18T00:39:03;6.40;81.10
13482;DHT22;6813;60.352;15.746;2023-05-18T00:41:29;6.40;80.90
13482;DHT22;6813;60.352;15.746;2023-05-18T00:43:56;6.30;82.10
13482;DHT22;6813;60.352;15.746;2023-05-18T00:46:26;6.30;82.40
13482;DHT22;6813;60.352;15.746;2023-05-18T00:48:53;6.50;82.50
13482;DHT22;6813;60.352;15.746;2023-05-18T00:51:20;6.70;82.80
13482;DHT22;6813;60.352;15.746;2023-05-18T00:53:51;6.80;81.80
13482;DHT22;6813;60.352;15.746;2023-05-18T00:56:17;6.90;80.60
13482;DHT22;6813;60.352;15.746;2023-05-18T00:58:44;6.90;80.90
13482;DHT22;6813;60.352;15.746;2023-05-18T01:01:10;7.00;80.60
13482;DHT22;6813;60.352;15.746;2023-05-18T01:03:36;7.00;79.60
13482;DHT22;6813;60.352;15.746;2023-05-18T01:06:06;6.80;79.90
13482;DHT22;6813;60.352;15.746;2023-05-18T01:08:33;6.70;80.00
13482;DHT22;6813;60.352;15.746;2023-05-18T01:11:13;6.50;80.80
13482;DHT22;6813;60.352;15.746;2023-05-18T01:14:05;6.60;81.60
13482;DHT22;6813;60.352;15.746;2023-05-18T01:16:35;6.70;80.00
13482;DHT22;6813;60.352;15.746;2023-05-18T01:19:10;6.70;81.10
13482;DHT22;6813;60.352;15.746;2023-05-18T01:24:47;6.80;80.10
13482;DHT22;6813;60.352;15.746;2023-05-18T01:27:16;6.60;79.90
13482;DHT22;6813;60.352;15.746;2023-05-18T01:29:47;6.70;81.60
13482;DHT22;6813;60.352;15.746;2023-05-18T01:32:18;6.70;80.30
13482;DHT22;6813;60.352;15.746;2023-05-18T01:34:47;6.60;80.00
13482;DHT22;6813;60.352;15.746;2023-05-18T01:37:13;6.60;79.80
13482;DHT22;6813;60.352;15.746;2023-05-18T01:39:39;6.40;79.40
13482;DHT22;6813;60.352;15.746;2023-05-18T01:42:14;6.40;81.40
13482;DHT22;6813;60.352;15.746;2023-05-18T01:44:53;6.30;81.30
13482;DHT22;6813;60.352;15.746;2023-05-18T01:47:24;6.40;80.90
13482;DHT22;6813;60.352;15.746;2023-05-18T01:50:19;6.30;80.30
13482;DHT22;6813;60.352;15.746;2023-05-18T01:53:07;6.30;81.00
13482;DHT22;6813;60.352;15.746;2023-05-18T01:55:37;6.20;80.50
13482;DHT22;6813;60.352;15.746;2023-05-18T01:58:05;6.20;80.40
13482;DHT22;6813;60.352;15.746;2023-05-18T02:00:32;6.20;80.70
13482;DHT22;6813;60.352;15.746;2023-05-18T02:02:59;6.20;80.80
13482;DHT22;6813;60.352;15.746;2023-05-18T02:05:24;6.30;80.90
13482;DHT22;6813;60.352;15.746;2023-05-18T02:07:50;6.30;80.70
13482;DHT22;6813;60.352;15.746;2023-05-18T02:10:16;6.30;81.00
13482;DHT22;6813;60.352;15.746;2023-05-18T02:12:42;6.20;80.30
13482;DHT22;6813;60.352;15.746;2023-05-18T02:15:08;6.20;80.20
13482;DHT22;6813;60.352;15.746;2023-05-18T02:17:35;6.30;81.00
13482;DHT22;6813;60.352;15.746;2023-05-18T02:20:04;6.40;80.50
13482;DHT22;6813;60.352;15.746;2023-05-18T02:22:33;6.40;80.50
13482;DHT22;6813;60.352;15.746;2023-05-18T02:24:59;6.30;79.80
13482;DHT22;6813;60.352;15.746;2023-05-18T02:27:25;6.20;80.20
13482;DHT22;6813;60.352;15.746;2023-05-18T02:29:53;6.30;80.30
13482;DHT22;6813;60.352;15.746;2023-05-18T02:32:19;6.30;80.50
13482;DHT22;6813;60.352;15.746;2023-05-18T02:34:45;6.30;80.70
13482;DHT22;6813;60.352;15.746;2023-05-18T02:37:11;6.30;80.60
13482;DHT22;6813;60.352;15.746;2023-05-18T02:39:38;6.40;81.70
13482;DHT22;6813;60.352;15.746;2023-05-18T02:42:04;6.30;80.60
13482;DHT22;6813;60.352;15.746;2023-05-18T02:44:30;6.10;81.20
13482;DHT22;6813;60.352;15.746;2023-05-18T02:46:56;6.20;81.20
13482;DHT22;6813;60.352;15.746;2023-05-18T02:49:22;6.20;81.20
13482;DHT22;6813;60.352;15.746;2023-05-18T02:51:47;6.20;81.80
13482;DHT22;6813;60.352;15.746;2023-05-18T02:54:13;6.20;81.40
13482;DHT22;6813;60.352;15.746;2023-05-18T02:56:39;6.40;81.40
13482;DHT22;6813;60.352;15.746;2023-05-18T02:59:06;6.40;81.20
13482;DHT22;6813;60.352;15.746;2023-05-18T03:01:32;6.50;81.50
13482;DHT22;6813;60.352;15.746;2023-05-18T03:04:01;6.40;81.20
13482;DHT22;6813;60.352;15.746;2023-05-18T03:06:28;6.20;81.30
13482;DHT22;6813;60.352;15.746;2023-05-18T03:08:55;6.10;82.30
13482;DHT22;6813;60.352;15.746;2023-05-18T03:11:22;6.10;82.60
13482;DHT22;6813;60.352;15.746;2023-05-18T03:13:48;6.20;82.70
13482;DHT22;6813;60.352;15.746;2023-05-18T03:16:13;6.20;82.90
13482;DHT22;6813;60.352;15.746;2023-05-18T03:18:40;6.20;84.00
13482;DHT22;6813;60.352;15.746;2023-05-18T03:21:06;6.00;84.50
13482;DHT22;6813;60.352;15.746;2023-05-18T03:23:33;5.90;84.90
13482;DHT22;6813;60.352;15.746;2023-05-18T03:25:59;5.80;85.70
13482;DHT22;6813;60.352;15.746;2023-05-18T03:28:27;5.80;85.60
13482;DHT22;6813;60.352;15.746;2023-05-18T03:30:54;5.80;86.40
13482;DHT22;6813;60.352;15.746;2023-05-18T03:33:20;5.80;86.90
13482;DHT22;6813;60.352;15.746;2023-05-18T03:35:47;5.80;86.40
13482;DHT22;6813;60.352;15.746;2023-05-18T03:38:12;5.90;86.90
13482;DHT22;6813;60.352;15.746;2023-05-18T03:40:38;6.00;86.70
13482;DHT22;6813;60.352;15.746;2023-05-18T03:43:04;6.20;86.70
13482;DHT22;6813;60.352;15.746;2023-05-18T03:45:29;6.40;86.00
13482;DHT22;6813;60.352;15.746;2023-05-18T03:47:55;6.40;85.60
13482;DHT22;6813;60.352;15.746;2023-05-18T03:50:21;6.50;85.40
13482;DHT22;6813;60.352;15.746;2023-05-18T03:52:47;6.50;85.90
13482;DHT22;6813;60.352;15.746;2023-05-18T03:55:12;6.60;85.80
13482;DHT22;6813;60.352;15.746;2023-05-18T03:57:38;6.70;86.20
13482;DHT22;6813;60.352;15.746;2023-05-18T04:00:05;6.90;86.00
13482;DHT22;6813;60.352;15.746;2023-05-18T04:02:37;7.10;85.30
13482;DHT22;6813;60.352;15.746;2023-05-18T04:05:03;7.30;85.20
13482;DHT22;6813;60.352;15.746;2023-05-18T04:07:29;7.50;85.60
13482;DHT22;6813;60.352;15.746;2023-05-18T04:09:55;7.40;84.80
13482;DHT22;6813;60.352;15.746;2023-05-18T04:12:21;7.60;85.60
13482;DHT22;6813;60.352;15.746;2023-05-18T04:14:47;7.80;85.30
13482;DHT22;6813;60.352;15.746;2023-05-18T04:17:18;8.00;84.60
13482;DHT22;6813;60.352;15.746;2023-05-18T04:19:47;8.30;83.50
13482;DHT22;6813;60.352;15.746;2023-05-18T04:22:14;8.60;82.80
13482;DHT22;6813;60.352;15.746;2023-05-18T04:24:41;8.70;82.80
13482;DHT22;6813;60.352;15.746;2023-05-18T04:27:08;8.80;83.00
13482;DHT22;6813;60.352;15.746;2023-05-18T04:29:34;8.80;82.30
13482;DHT22;6813;60.352;15.746;2023-05-18T04:32:04;8.90;82.70
13482;DHT22;6813;60.352;15.746;2023-05-18T04:34:32;9.10;83.10
13482;DHT22;6813;60.352;15.746;2023-05-18T04:37:00;9.30;82.90
13482;DHT22;6813;60.352;15.746;2023-05-18T04:39:27;9.60;84.00
13482;DHT22;6813;60.352;15.746;2023-05-18T04:41:53;9.80;82.10
13482;DHT22;6813;60.352;15.746;2023-05-18T04:44:29;10.00;81.50
13482;DHT22;6813;60.352;15.746;2023-05-18T04:46:59;10.20;81.40
13482;DHT22;6813;60.352;15.746;2023-05-18T04:49:25;10.30;79.40
13482;DHT22;6813;60.352;15.746;2023-05-18T04:51:53;10.40;79.50
13482;DHT22;6813;60.352;15.746;2023-05-18T04:54:27;10.50;79.40
13482;DHT22;6813;60.352;15.746;2023-05-18T04:56:57;10.80;79.30
13482;DHT22;6813;60.352;15.746;2023-05-18T04:59:23;11.10;79.50
13482;DHT22;6813;60.352;15.746;2023-05-18T05:01:54;11.30;78.80
13482;DHT22;6813;60.352;15.746;2023-05-18T05:04:20;11.40;77.00
13482;DHT22;6813;60.352;15.746;2023-05-18T05:06:46;11.60;76.80
13482;DHT22;6813;60.352;15.746;2023-05-18T05:09:12;11.70;76.70
13482;DHT22;6813;60.352;15.746;2023-05-18T05:11:39;11.90;76.00
13482;DHT22;6813;60.352;15.746;2023-05-18T05:14:06;12.00;75.80
13482;DHT22;6813;60.352;15.746;2023-05-18T05:16:32;12.30;77.50
13482;DHT22;6813;60.352;15.746;2023-05-18T05:18:57;12.40;76.90
13482;DHT22;6813;60.352;15.746;2023-05-18T05:21:24;12.60;74.20
13482;DHT22;6813;60.352;15.746;2023-05-18T05:23:49;12.80;74.50
13482;DHT22;6813;60.352;15.746;2023-05-18T05:26:15;13.10;74.40
13482;DHT22;6813;60.352;15.746;2023-05-18T05:28:41;13.10;73.20
13482;DHT22;6813;60.352;15.746;2023-05-18T05:31:07;13.10;73.00
13482;DHT22;6813;60.352;15.746;2023-05-18T05:33:33;13.20;72.20
13482;DHT22;6813;60.352;15.746;2023-05-18T05:35:59;13.20;72.30
13482;DHT22;6813;60.352;15.746;2023-05-18T05:38:25;13.50;74.20
13482;DHT22;6813;60.352;15.746;2023-05-18T05:40:51;13.80;71.30
13482;DHT22;6813;60.352;15.746;2023-05-18T05:43:16;13.90;71.00
13482;DHT22;6813;60.352;15.746;2023-05-18T05:45:42;14.10;71.40
13482;DHT22;6813;60.352;15.746;2023-05-18T05:48:09;14.20;71.90
13482;DHT22;6813;60.352;15.746;2023-05-18T05:50:35;14.40;71.70
13482;DHT22;6813;60.352;15.746;2023-05-18T05:53:00;14.60;72.60
13482;DHT22;6813;60.352;15.746;2023-05-18T05:55:26;14.70;70.00
13482;DHT22;6813;60.352;15.746;2023-05-18T05:57:52;14.90;69.70
13482;DHT22;6813;60.352;15.746;2023-05-18T06:00:18;15.00;69.40
13482;DHT22;6813;60.352;15.746;2023-05-18T06:02:44;15.30;71.60
13482;DHT22;6813;60.352;15.746;2023-05-18T06:05:10;15.60;70.00
13482;DHT22;6813;60.352;15.746;2023-05-18T06:07:36;15.80;66.90
13482;DHT22;6813;60.352;15.746;2023-05-18T06:10:02;15.70;67.30
13482;DHT22;6813;60.352;15.746;2023-05-18T06:12:28;15.80;66.40
13482;DHT22;6813;60.352;15.746;2023-05-18T06:14:54;15.80;66.40
13482;DHT22;6813;60.352;15.746;2023-05-18T06:17:26;16.00;67.00
13482;DHT22;6813;60.352;15.746;2023-05-18T06:19:53;16.10;65.10
13482;DHT22;6813;60.352;15.746;2023-05-18T06:22:18;16.30;75.70
13482;DHT22;6813;60.352;15.746;2023-05-18T06:24:44;16.40;68.10
13482;DHT22;6813;60.352;15.746;2023-05-18T06:27:10;16.60;67.50
13482;DHT22;6813;60.352;15.746;2023-05-18T06:29:36;16.50;65.80
13482;DHT22;6813;60.352;15.746;2023-05-18T06:32:02;16.70;68.20
13482;DHT22;6813;60.352;15.746;2023-05-18T06:34:28;17.10;66.10
13482;DHT22;6813;60.352;15.746;2023-05-18T06:36:53;17.20;62.00
13482;DHT22;6813;60.352;15.746;2023-05-18T06:39:19;17.20;61.10
13482;DHT22;6813;60.352;15.746;2023-05-18T06:41:45;17.10;61.70
13482;DHT22;6813;60.352;15.746;2023-05-18T06:44:11;16.80;61.90
13482;DHT22;6813;60.352;15.746;2023-05-18T06:46:37;16.80;61.80
13482;DHT22;6813;60.352;15.746;2023-05-18T06:49:03;16.60;61.90
13482;DHT22;6813;60.352;15.746;2023-05-18T06:51:30;16.40;61.70
13482;DHT22;6813;60.352;15.746;2023-05-18T06:53:56;16.50;62.20
13482;DHT22;6813;60.352;15.746;2023-05-18T06:56:22;16.60;64.60
13482;DHT22;6813;60.352;15.746;2023-05-18T06:58:48;16.80;62.60
13482;DHT22;6813;60.352;15.746;2023-05-18T07:01:14;16.90;61.60
13482;DHT22;6813;60.352;15.746;2023-05-18T07:03:42;17.00;62.40
13482;DHT22;6813;60.352;15.746;2023-05-18T07:06:08;16.80;60.60
13482;DHT22;6813;60.352;15.746;2023-05-18T07:08:34;16.80;60.70
13482;DHT22;6813;60.352;15.746;2023-05-18T07:11:04;16.60;64.20
13482;DHT22;6813;60.352;15.746;2023-05-18T07:13:30;16.70;62.70
13482;DHT22;6813;60.352;15.746;2023-05-18T07:15:56;17.20;66.30
13482;DHT22;6813;60.352;15.746;2023-05-18T07:18:22;17.20;61.30
13482;DHT22;6813;60.352;15.746;2023-05-18T07:20:48;17.30;61.50
13482;DHT22;6813;60.352;15.746;2023-05-18T07:23:14;17.40;60.60
13482;DHT22;6813;60.352;15.746;2023-05-18T07:25:40;17.30;61.10
13482;DHT22;6813;60.352;15.746;2023-05-18T07:28:06;17.40;59.50
13482;DHT22;6813;60.352;15.746;2023-05-18T07:30:32;17.20;59.30
13482;DHT22;6813;60.352;15.746;2023-05-18T07:32:58;17.10;60.70
13482;DHT22;6813;60.352;15.746;2023-05-18T07:35:24;17.20;62.00
13482;DHT22;6813;60.352;15.746;2023-05-18T07:37:51;17.30;59.30
13482;DHT22;6813;60.352;15.746;2023-05-18T07:40:18;17.20;59.80
13482;DHT22;6813;60.352;15.746;2023-05-18T07:42:44;17.20;60.60
13482;DHT22;6813;60.352;15.746;2023-05-18T07:45:10;17.40;59.40
13482;DHT22;6813;60.352;15.746;2023-05-18T07:47:36;17.60;59.10
13482;DHT22;6813;60.352;15.746;2023-05-18T07:50:02;17.70;58.50
13482;DHT22;6813;60.352;15.746;2023-05-18T07:52:28;17.80;58.90
13482;DHT22;6813;60.352;15.746;2023-05-18T07:54:56;18.00;58.70
13482;DHT22;6813;60.352;15.746;2023-05-18T07:57:23;18.20;58.40
13482;DHT22;6813;60.352;15.746;2023-05-18T07:59:49;18.20;57.40
13482;DHT22;6813;60.352;15.746;2023-05-18T08:02:15;18.10;56.70
13482;DHT22;6813;60.352;15.746;2023-05-18T08:04:45;18.10;57.10
13482;DHT22;6813;60.352;15.746;2023-05-18T08:07:10;18.00;55.50
13482;DHT22;6813;60.352;15.746;2023-05-18T08:09:37;18.00;58.60
13482;DHT22;6813;60.352;15.746;2023-05-18T08:12:04;18.10;58.10
13482;DHT22;6813;60.352;15.746;2023-05-18T08:14:30;18.10;56.20
13482;DHT22;6813;60.352;15.746;2023-05-18T08:16:56;18.20;57.20
13482;DHT22;6813;60.352;15.746;2023-05-18T08:19:21;18.30;57.00
13482;DHT22;6813;60.352;15.746;2023-05-18T08:21:47;18.30;56.20
13482;DHT22;6813;60.352;15.746;2023-05-18T08:24:13;18.40;56.60
13482;DHT22;6813;60.352;15.746;2023-05-18T08:26:39;18.40;55.50
13482;DHT22;6813;60.352;15.746;2023-05-18T08:29:04;18.40;57.00
13482;DHT22;6813;60.352;15.746;2023-05-18T08:31:38;18.60;55.80
13482;DHT22;6813;60.352;15.746;2023-05-18T08:34:04;18.70;54.10
13482;DHT22;6813;60.352;15.746;2023-05-18T08:36:31;18.60;53.70
13482;DHT22;6813;60.352;15.746;2023-05-18T08:38:58;18.70;54.30
13482;DHT22;6813;60.352;15.746;2023-05-18T08:42:00;18.80;54.40
13482;DHT22;6813;60.352;15.746;2023-05-18T08:44:40;18.90;53.70
13482;DHT22;6813;60.352;15.746;2023-05-18T08:47:10;18.70;54.40
13482;DHT22;6813;60.352;15.746;2023-05-18T08:49:41;18.60;55.90
13482;DHT22;6813;60.352;15.746;2023-05-18T08:52:07;18.50;56.60
13482;DHT22;6813;60.352;15.746;2023-05-18T08:54:36;18.40;54.90
13482;DHT22;6813;60.352;15.746;2023-05-18T08:57:07;18.50;55.10
13482;DHT22;6813;60.352;15.746;2023-05-18T08:59:38;18.70;56.40
13482;DHT22;6813;60.352;15.746;2023-05-18T09:02:05;18.80;54.80
13482;DHT22;6813;60.352;15.746;2023-05-18T09:04:31;18.60;53.70
13482;DHT22;6813;60.352;15.746;2023-05-18T09:07:01;18.70;55.70
13482;DHT22;6813;60.352;15.746;2023-05-18T09:09:28;18.70;54.10
13482;DHT22;6813;60.352;15.746;2023-05-18T09:11:57;18.70;56.00
13482;DHT22;6813;60.352;15.746;2023-05-18T09:14:23;18.90;57.50
13482;DHT22;6813;60.352;15.746;2023-05-18T09:16:54;18.80;53.70
13482;DHT22;6813;60.352;15.746;2023-05-18T09:19:20;18.80;53.70
13482;DHT22;6813;60.352;15.746;2023-05-18T09:21:46;18.90;55.40
13482;DHT22;6813;60.352;15.746;2023-05-18T09:24:11;18.70;56.10
13482;DHT22;6813;60.352;15.746;2023-05-18T09:26:38;18.90;57.90
13482;DHT22;6813;60.352;15.746;2023-05-18T09:29:18;19.00;57.80
13482;DHT22;6813;60.352;15.746;2023-05-18T09:31:45;19.10;56.00
13482;DHT22;6813;60.352;15.746;2023-05-18T09:34:11;19.30;55.20
13482;DHT22;6813;60.352;15.746;2023-05-18T09:36:37;19.40;53.70
13482;DHT22;6813;60.352;15.746;2023-05-18T09:39:08;19.40;54.50
13482;DHT22;6813;60.352;15.746;2023-05-18T09:41:37;19.40;54.40
13482;DHT22;6813;60.352;15.746;2023-05-18T09:44:07;19.50;54.80
13482;DHT22;6813;60.352;15.746;2023-05-18T09:46:38;19.60;53.30
13482;DHT22;6813;60.352;15.746;2023-05-18T09:49:05;19.70;53.90
13482;DHT22;6813;60.352;15.746;2023-05-18T09:51:37;19.70;52.90
13482;DHT22;6813;60.352;15.746;2023-05-18T09:54:06;19.40;55.00
13482;DHT22;6813;60.352;15.746;2023-05-18T09:56:36;19.30;53.80
13482;DHT22;6813;60.352;15.746;2023-05-18T09:59:13;19.50;55.10
13482;DHT22;6813;60.352;15.746;2023-05-18T10:04:21;19.50;55.00
13482;DHT22;6813;60.352;15.746;2023-05-18T10:06:50;19.40;57.40
13482;DHT22;6813;60.352;15.746;2023-05-18T10:09:16;19.20;57.60
13482;DHT22;6813;60.352;15.746;2023-05-18T10:11:43;19.10;54.70
13482;DHT22;6813;60.352;15.746;2023-05-18T10:14:11;18.90;55.20
13482;DHT22;6813;60.352;15.746;2023-05-18T10:16:39;18.90;56.70
13482;DHT22;6813;60.352;15.746;2023-05-18T10:19:05;19.10;55.30
13482;DHT22;6813;60.352;15.746;2023-05-18T10:21:33;19.20;54.90
13482;DHT22;6813;60.352;15.746;2023-05-18T10:24:02;19.40;55.10
13482;DHT22;6813;60.352;15.746;2023-05-18T10:26:33;19.60;54.90
13482;DHT22;6813;60.352;15.746;2023-05-18T10:29:01;19.60;54.80
13482;DHT22;6813;60.352;15.746;2023-05-18T10:31:29;19.60;54.80
13482;DHT22;6813;60.352;15.746;2023-05-18T10:33:57;19.80;53.70
13482;DHT22;6813;60.352;15.746;2023-05-18T10:36:24;20.00;54.40
13482;DHT22;6813;60.352;15.746;2023-05-18T10:38:50;20.00;54.60
13482;DHT22;6813;60.352;15.746;2023-05-18T10:41:17;20.00;52.70
13482;DHT22;6813;60.352;15.746;2023-05-18T10:43:47;20.20;53.30
13482;DHT22;6813;60.352;15.746;2023-05-18T10:46:13;20.10;55.30
13482;DHT22;6813;60.352;15.746;2023-05-18T10:48:41;20.20;53.50
13482;DHT22;6813;60.352;15.746;2023-05-18T10:51:10;19.70;53.60
13482;DHT22;6813;60.352;15.746;2023-05-18T10:53:38;19.20;53.40
13482;DHT22;6813;60.352;15.746;2023-05-18T10:56:08;19.40;54.60
13482;DHT22;6813;60.352;15.746;2023-05-18T10:58:36;19.60;54.40
13482;DHT22;6813;60.352;15.746;2023-05-18T11:01:05;19.80;54.00
13482;DHT22;6813;60.352;15.746;2023-05-18T11:03:33;19.80;53.90
13482;DHT22;6813;60.352;15.746;2023-05-18T11:06:08;19.90;52.80
13482;DHT22;6813;60.352;15.746;2023-05-18T11:08:48;20.00;53.00
13482;DHT22;6813;60.352;15.746;2023-05-18T11:11:15;20.20;53.70
13482;DHT22;6813;60.352;15.746;2023-05-18T11:13:48;19.90;53.60
13482;DHT22;6813;60.352;15.746;2023-05-18T11:16:15;19.60;53.30
13482;DHT22;6813;60.352;15.746;2023-05-18T11:18:49;19.50;52.90
13482;DHT22;6813;60.352;15.746;2023-05-18T11:24:20;19.50;53.30
13482;DHT22;6813;60.352;15.746;2023-05-18T11:26:59;19.50;55.00
13482;DHT22;6813;60.352;15.746;2023-05-18T11:31:57;19.70;56.40
13482;DHT22;6813;60.352;15.746;2023-05-18T11:34:39;19.70;54.20
13482;DHT22;6813;60.352;15.746;2023-05-18T11:37:51;19.80;54.00
13482;DHT22;6813;60.352;15.746;2023-05-18T11:39:58;19.70;52.60
13482;DHT22;6813;60.352;15.746;2023-05-18T11:42:31;19.30;56.00
13482;DHT22;6813;60.352;15.746;2023-05-18T11:45:05;18.90;53.90
13482;DHT22;6813;60.352;15.746;2023-05-18T11:47:32;18.90;54.80
13482;DHT22;6813;60.352;15.746;2023-05-18T11:49:59;19.10;54.60
13482;DHT22;6813;60.352;15.746;2023-05-18T11:52:25;19.00;57.60
13482;DHT22;6813;60.352;15.746;2023-05-18T11:54:52;19.00;53.70
13482;DHT22;6813;60.352;15.746;2023-05-18T11:57:21;19.00;54.10
13482;DHT22;6813;60.352;15.746;2023-05-18T11:59:54;19.20;54.50
13482;DHT22;6813;60.352;15.746;2023-05-18T12:02:29;19.30;56.20
13482;DHT22;6813;60.352;15.746;2023-05-18T12:04:59;19.40;55.80
13482;DHT22;6813;60.352;15.746;2023-05-18T12:07:27;19.40;55.90
13482;DHT22;6813;60.352;15.746;2023-05-18T12:10:05;19.50;55.10
13482;DHT22;6813;60.352;15.746;2023-05-18T12:12:32;19.60;54.40
13482;DHT22;6813;60.352;15.746;2023-05-18T12:15:02;19.60;54.80
13482;DHT22;6813;60.352;15.746;2023-05-18T12:20:12;19.90;53.60
13482;DHT22;6813;60.352;15.746;2023-05-18T12:22:39;19.90;54.30
13482;DHT22;6813;60.352;15.746;2023-05-18T12:25:05;19.70;52.80
13482;DHT22;6813;60.352;15.746;2023-05-18T12:27:37;19.60;53.00
13482;DHT22;6813;60.352;15.746;2023-05-18T12:30:05;19.60;54.40
13482;DHT22;6813;60.352;15.746;2023-05-18T12:32:31;19.60;54.20
13482;DHT22;6813;60.352;15.746;2023-05-18T12:34:57;19.70;54.10
13482;DHT22;6813;60.352;15.746;2023-05-18T12:37:24;19.70;52.30
13482;DHT22;6813;60.352;15.746;2023-05-18T12:39:52;19.60;51.60
13482;DHT22;6813;60.352;15.746;2023-05-18T12:42:18;19.50;52.80
13482;DHT22;6813;60.352;15.746;2023-05-18T12:44:44;19.50;52.70
13482;DHT22;6813;60.352;15.746;2023-05-18T12:47:12;19.60;51.80
13482;DHT22;6813;60.352;15.746;2023-05-18T12:49:39;19.50;53.40
13482;DHT22;6813;60.352;15.746;2023-05-18T12:52:13;19.50;54.10
13482;DHT22;6813;60.352;15.746;2023-05-18T12:54:54;19.50;54.50
13482;DHT22;6813;60.352;15.746;2023-05-18T12:57:22;19.40;57.00
13482;DHT22;6813;60.352;15.746;2023-05-18T12:59:52;19.40;56.30
13482;DHT22;6813;60.352;15.746;2023-05-18T13:02:36;19.50;52.90
13482;DHT22;6813;60.352;15.746;2023-05-18T13:05:05;19.30;54.90
13482;DHT22;6813;60.352;15.746;2023-05-18T13:07:37;19.10;54.30
13482;DHT22;6813;60.352;15.746;2023-05-18T13:10:11;19.00;55.00
13482;DHT22;6813;60.352;15.746;2023-05-18T13:12:49;19.10;53.70
13482;DHT22;6813;60.352;15.746;2023-05-18T13:15:20;19.40;53.90
13482;DHT22;6813;60.352;15.746;2023-05-18T13:20:45;19.40;52.90
13482;DHT22;6813;60.352;15.746;2023-05-18T13:23:17;19.40;53.50
13482;DHT22;6813;60.352;15.746;2023-05-18T13:25:43;19.50;55.80
13482;DHT22;6813;60.352;15.746;2023-05-18T13:28:11;19.20;52.70
13482;DHT22;6813;60.352;15.746;2023-05-18T13:30:38;18.90;54.80
13482;DHT22;6813;60.352;15.746;2023-05-18T13:33:05;19.00;56.00
13482;DHT22;6813;60.352;15.746;2023-05-18T13:35:38;19.00;53.60
13482;DHT22;6813;60.352;15.746;2023-05-18T13:38:08;18.90;57.10
13482;DHT22;6813;60.352;15.746;2023-05-18T13:40:35;19.00;56.40
13482;DHT22;6813;60.352;15.746;2023-05-18T13:43:00;18.90;54.40
13482;DHT22;6813;60.352;15.746;2023-05-18T13:45:26;19.00;56.20
13482;DHT22;6813;60.352;15.746;2023-05-18T13:47:52;18.80;54.60
13482;DHT22;6813;60.352;15.746;2023-05-18T13:50:19;18.80;54.10
13482;DHT22;6813;60.352;15.746;2023-05-18T13:52:45;18.70;50.90
13482;DHT22;6813;60.352;15.746;2023-05-18T13:55:14;18.40;53.50
13482;DHT22;6813;60.352;15.746;2023-05-18T13:57:40;17.90;55.40
13482;DHT22;6813;60.352;15.746;2023-05-18T14:00:07;18.10;56.30
13482;DHT22;6813;60.352;15.746;2023-05-18T14:02:41;18.20;56.50
13482;DHT22;6813;60.352;15.746;2023-05-18T14:05:08;18.40;56.70
13482;DHT22;6813;60.352;15.746;2023-05-18T14:07:38;18.30;52.60
13482;DHT22;6813;60.352;15.746;2023-05-18T14:10:04;18.20;55.30
13482;DHT22;6813;60.352;15.746;2023-05-18T14:12:31;18.30;55.30
13482;DHT22;6813;60.352;15.746;2023-05-18T14:14:57;18.30;56.50
13482;DHT22;6813;60.352;15.746;2023-05-18T14:17:23;18.40;55.20
13482;DHT22;6813;60.352;15.746;2023-05-18T14:19:49;18.30;55.60
13482;DHT22;6813;60.352;15.746;2023-05-18T14:22:15;18.40;56.80
13482;DHT22;6813;60.352;15.746;2023-05-18T14:24:42;18.30;55.60
13482;DHT22;6813;60.352;15.746;2023-05-18T14:27:07;18.30;54.10
13482;DHT22;6813;60.352;15.746;2023-05-18T14:29:33;18.20;53.80
13482;DHT22;6813;60.352;15.746;2023-05-18T14:31:59;17.90;53.20
13482;DHT22;6813;60.352;15.746;2023-05-18T14:34:25;18.00;54.50
13482;DHT22;6813;60.352;15.746;2023-05-18T14:36:51;18.20;57.30
13482;DHT22;6813;60.352;15.746;2023-05-18T14:39:17;18.20;55.00
13482;DHT22;6813;60.352;15.746;2023-05-18T14:41:43;18.30;56.80
13482;DHT22;6813;60.352;15.746;2023-05-18T14:44:09;18.40;54.70
13482;DHT22;6813;60.352;15.746;2023-05-18T14:46:35;18.50;56.60
13482;DHT22;6813;60.352;15.746;2023-05-18T14:49:01;18.40;56.30
13482;DHT22;6813;60.352;15.746;2023-05-18T14:51:27;18.40;56.80
13482;DHT22;6813;60.352;15.746;2023-05-18T14:53:53;18.30;55.70
13482;DHT22;6813;60.352;15.746;2023-05-18T14:56:19;18.10;52.80
13482;DHT22;6813;60.352;15.746;2023-05-18T14:58:44;17.70;54.80
13482;DHT22;6813;60.352;15.746;2023-05-18T15:01:10;17.40;56.90
13482;DHT22;6813;60.352;15.746;2023-05-18T15:03:36;17.50;54.50
13482;DHT22;6813;60.352;15.746;2023-05-18T15:06:01;17.60;55.30
13482;DHT22;6813;60.352;15.746;2023-05-18T15:08:27;17.60;53.60
13482;DHT22;6813;60.352;15.746;2023-05-18T15:10:53;17.10;55.20
13482;DHT22;6813;60.352;15.746;2023-05-18T15:13:19;17.30;56.50
13482;DHT22;6813;60.352;15.746;2023-05-18T15:15:45;17.40;57.60
13482;DHT22;6813;60.352;15.746;2023-05-18T15:18:11;17.50;58.30
13482;DHT22;6813;60.352;15.746;2023-05-18T15:20:37;17.70;57.70
13482;DHT22;6813;60.352;15.746;2023-05-18T15:23:09;17.70;55.80
13482;DHT22;6813;60.352;15.746;2023-05-18T15:25:38;17.60;53.70
13482;DHT22;6813;60.352;15.746;2023-05-18T15:28:04;17.50;55.70
13482;DHT22;6813;60.352;15.746;2023-05-18T15:30:31;17.50;56.20
13482;DHT22;6813;60.352;15.746;2023-05-18T15:32:57;17.40;52.10
13482;DHT22;6813;60.352;15.746;2023-05-18T15:35:23;17.30;55.30
13482;DHT22;6813;60.352;15.746;2023-05-18T15:37:49;17.40;56.90
13482;DHT22;6813;60.352;15.746;2023-05-18T15:40:17;17.50;56.40
13482;DHT22;6813;60.352;15.746;2023-05-18T15:42:43;17.60;58.50
13482;DHT22;6813;60.352;15.746;2023-05-18T15:45:09;17.70;59.10
13482;DHT22;6813;60.352;15.746;2023-05-18T15:47:35;17.80;52.50
13482;DHT22;6813;60.352;15.746;2023-05-18T15:50:01;17.80;55.20
13482;DHT22;6813;60.352;15.746;2023-05-18T15:52:27;17.70;56.40
13482;DHT22;6813;60.352;15.746;2023-05-18T15:54:52;17.80;57.40
13482;DHT22;6813;60.352;15.746;2023-05-18T15:57:18;17.60;53.80